sensor_id;sensor_type;location;lat;lon;timestamp;P1;durP1;ratioP1;P2;durP2;ratioP2
64885;SDS011;51514;52.206;5.114;2024-01-10T00:01:35;8.27;;;5.38;;
64885;SDS011;51514;52.206;5.114;2024-01-10T00:04:00;8.13;;;5.18;;
64885;SDS011;51514;52.206;5.114;2024-01-10T00:06:25;9.75;;;5.85;;
64885;SDS011;51514;52.206;5.114;2024-01-10T00:08:51;8.75;;;6.28;;
64885;SDS011;51514;52.206;5.114;2024-01-10T00:11:16;8.85;;;5.40;;
64885;SDS011;51514;52.206;5.114;2024-01-10T00:13:41;9.57;;;5.90;;
64885;SDS011;51514;52.206;5.114;2024-01-10T00:16:07;8.70;;;5.68;;
64885;SDS011;51514;52.206;5.114;2024-01-10T00:18:33;7.55;;;5.50;;
64885;SDS011;51514;52.206;5.114;2024-01-10T00:20:59;8.93;;;5.53;;
64885;SDS011;51514;52.206;5.114;2024-01-10T00:23:24;8.20;;;5.53;;
64885;SDS011;51514;52.206;5.114;2024-01-10T00:25:49;7.70;;;5.57;;
64885;SDS011;51514;52.206;5.114;2024-01-10T00:28:15;8.63;;;5.35;;
64885;SDS011;51514;52.206;5.114;2024-01-10T00:30:43;9.35;;;5.40;;
64885;SDS011;51514;52.206;5.114;2024-01-10T00:33:10;10.18;;;6.15;;
64885;SDS011;51514;52.206;5.114;2024-01-10T00:35:36;7.22;;;5.57;;
64885;SDS011;51514;52.206;5.114;2024-01-10T00:38:01;8.18;;;5.45;;
64885;SDS011;51514;52.206;5.114;2024-01-10T00:40:27;9.75;;;5.60;;
64885;SDS011;51514;52.206;5.114;2024-01-10T00:42:52;8.20;;;5.78;;
64885;SDS011;51514;52.206;5.114;2024-01-10T00:45:17;10.75;;;5.38;;
64885;SDS011;51514;52.206;5.114;2024-01-10T00:47:43;9.45;;;5.50;;
64885;SDS011;51514;52.206;5.114;2024-01-10T00:50:08;11.93;;;6.40;;
64885;SDS011;51514;52.206;5.114;2024-01-10T00:52:34;9.73;;;5.80;;
64885;SDS011;51514;52.206;5.114;2024-01-10T00:54:59;8.25;;;5.43;;
64885;SDS011;51514;52.206;5.114;2024-01-10T00:57:24;11.43;;;5.75;;
64885;SDS011;51514;52.206;5.114;2024-01-10T00:59:50;7.47;;;5.45;;
64885;SDS011;51514;52.206;5.114;2024-01-10T01:02:15;8.77;;;5.63;;
64885;SDS011;51514;52.206;5.114;2024-01-10T01:04:41;9.75;;;6.53;;
64885;SDS011;51514;52.206;5.114;2024-01-10T01:07:06;9.77;;;6.07;;
64885;SDS011;51514;52.206;5.114;2024-01-10T01:09:31;9.60;;;6.93;;
64885;SDS011;51514;52.206;5.114;2024-01-10T01:11:57;10.25;;;6.38;;
64885;SDS011;51514;52.206;5.114;2024-01-10T01:14:22;8.70;;;5.85;;
64885;SDS011;51514;52.206;5.114;2024-01-10T01:16:47;8.77;;;5.90;;
64885;SDS011;51514;52.206;5.114;2024-01-10T01:19:13;9.70;;;7.00;;
64885;SDS011;51514;52.206;5.114;2024-01-10T01:21:38;8.93;;;6.32;;
64885;SDS011;51514;52.206;5.114;2024-01-10T01:24:03;10.88;;;6.18;;
64885;SDS011;51514;52.206;5.114;2024-01-10T01:26:29;10.77;;;6.90;;
64885;SDS011;51514;52.206;5.114;2024-01-10T01:28:54;9.98;;;6.70;;
64885;SDS011;51514;52.206;5.114;2024-01-10T01:31:19;9.75;;;6.95;;
64885;SDS011;51514;52.206;5.114;2024-01-10T01:33:45;9.60;;;6.80;;
64885;SDS011;51514;52.206;5.114;2024-01-10T01:36:11;12.40;;;7.45;;
64885;SDS011;51514;52.206;5.114;2024-01-10T01:38:36;10.55;;;6.68;;
64885;SDS011;51514;52.206;5.114;2024-01-10T01:41:01;10.90;;;6.93;;
64885;SDS011;51514;52.206;5.114;2024-01-10T01:43:27;10.65;;;7.22;;
64885;SDS011;51514;52.206;5.114;2024-01-10T01:45:54;10.75;;;7.38;;
64885;SDS011;51514;52.206;5.114;2024-01-10T01:48:21;13.02;;;7.72;;
64885;SDS011;51514;52.206;5.114;2024-01-10T01:50:49;11.95;;;8.10;;
64885;SDS011;51514;52.206;5.114;2024-01-10T01:53:19;10.68;;;7.50;;
64885;SDS011;51514;52.206;5.114;2024-01-10T01:55:45;11.27;;;7.80;;
64885;SDS011;51514;52.206;5.114;2024-01-10T01:58:11;12.27;;;7.85;;
64885;SDS011;51514;52.206;5.114;2024-01-10T02:00:37;12.48;;;8.00;;
64885;SDS011;51514;52.206;5.114;2024-01-10T02:03:04;11.38;;;8.18;;
64885;SDS011;51514;52.206;5.114;2024-01-10T02:05:31;12.50;;;7.82;;
64885;SDS011;51514;52.206;5.114;2024-01-10T02:07:57;11.55;;;8.13;;
64885;SDS011;51514;52.206;5.114;2024-01-10T02:10:23;12.88;;;7.95;;
64885;SDS011;51514;52.206;5.114;2024-01-10T02:12:48;12.48;;;8.15;;
64885;SDS011;51514;52.206;5.114;2024-01-10T02:15:14;11.95;;;8.63;;
64885;SDS011;51514;52.206;5.114;2024-01-10T02:17:40;11.93;;;8.15;;
64885;SDS011;51514;52.206;5.114;2024-01-10T02:20:12;11.27;;;7.82;;
64885;SDS011;51514;52.206;5.114;2024-01-10T02:22:39;10.30;;;8.75;;
64885;SDS011;51514;52.206;5.114;2024-01-10T02:25:08;13.13;;;8.70;;
64885;SDS011;51514;52.206;5.114;2024-01-10T02:27:37;11.05;;;8.38;;
64885;SDS011;51514;52.206;5.114;2024-01-10T02:30:03;11.88;;;8.27;;
64885;SDS011;51514;52.206;5.114;2024-01-10T02:32:30;12.93;;;8.63;;
64885;SDS011;51514;52.206;5.114;2024-01-10T02:34:56;10.77;;;7.80;;
64885;SDS011;51514;52.206;5.114;2024-01-10T02:37:21;12.57;;;9.00;;
64885;SDS011;51514;52.206;5.114;2024-01-10T02:39:46;11.55;;;8.13;;
64885;SDS011;51514;52.206;5.114;2024-01-10T02:42:12;11.77;;;8.52;;
64885;SDS011;51514;52.206;5.114;2024-01-10T02:44:37;11.57;;;7.80;;
64885;SDS011;51514;52.206;5.114;2024-01-10T02:47:02;13.57;;;8.77;;
64885;SDS011;51514;52.206;5.114;2024-01-10T02:49:28;15.13;;;10.18;;
64885;SDS011;51514;52.206;5.114;2024-01-10T02:51:53;12.32;;;9.10;;
64885;SDS011;51514;52.206;5.114;2024-01-10T02:54:19;10.88;;;7.75;;
64885;SDS011;51514;52.206;5.114;2024-01-10T02:56:44;12.02;;;8.18;;
64885;SDS011;51514;52.206;5.114;2024-01-10T02:59:10;10.75;;;7.97;;
64885;SDS011;51514;52.206;5.114;2024-01-10T03:01:35;13.13;;;9.27;;
64885;SDS011;51514;52.206;5.114;2024-01-10T03:04:00;11.45;;;8.40;;
64885;SDS011;51514;52.206;5.114;2024-01-10T03:06:26;13.13;;;7.88;;
64885;SDS011;51514;52.206;5.114;2024-01-10T03:08:51;12.25;;;8.18;;
64885;SDS011;51514;52.206;5.114;2024-01-10T03:11:23;11.70;;;8.32;;
64885;SDS011;51514;52.206;5.114;2024-01-10T03:13:50;12.18;;;8.75;;
64885;SDS011;51514;52.206;5.114;2024-01-10T03:16:25;13.00;;;8.27;;
64885;SDS011;51514;52.206;5.114;2024-01-10T03:18:50;14.20;;;9.20;;
64885;SDS011;51514;52.206;5.114;2024-01-10T03:21:15;12.80;;;8.63;;
64885;SDS011;51514;52.206;5.114;2024-01-10T03:23:47;11.60;;;8.82;;
64885;SDS011;51514;52.206;5.114;2024-01-10T03:26:13;11.82;;;9.00;;
64885;SDS011;51514;52.206;5.114;2024-01-10T03:28:38;13.68;;;8.60;;
64885;SDS011;51514;52.206;5.114;2024-01-10T03:31:03;12.27;;;8.57;;
64885;SDS011;51514;52.206;5.114;2024-01-10T03:33:29;11.65;;;8.40;;
64885;SDS011;51514;52.206;5.114;2024-01-10T03:35:54;11.27;;;7.65;;
64885;SDS011;51514;52.206;5.114;2024-01-10T03:38:19;13.35;;;7.95;;
64885;SDS011;51514;52.206;5.114;2024-01-10T03:40:44;14.77;;;8.18;;
64885;SDS011;51514;52.206;5.114;2024-01-10T03:43:10;14.95;;;9.23;;
64885;SDS011;51514;52.206;5.114;2024-01-10T03:45:37;11.00;;;8.13;;
64885;SDS011;51514;52.206;5.114;2024-01-10T03:48:02;9.90;;;7.80;;
64885;SDS011;51514;52.206;5.114;2024-01-10T03:50:27;10.75;;;7.63;;
64885;SDS011;51514;52.206;5.114;2024-01-10T03:52:53;13.25;;;8.05;;
64885;SDS011;51514;52.206;5.114;2024-01-10T03:55:18;11.25;;;6.90;;
64885;SDS011;51514;52.206;5.114;2024-01-10T03:57:43;10.18;;;7.00;;
64885;SDS011;51514;52.206;5.114;2024-01-10T04:00:09;11.15;;;7.75;;
64885;SDS011;51514;52.206;5.114;2024-01-10T04:02:36;12.80;;;7.95;;
64885;SDS011;51514;52.206;5.114;2024-01-10T04:05:05;9.43;;;7.43;;
64885;SDS011;51514;52.206;5.114;2024-01-10T04:07:41;8.93;;;7.10;;
64885;SDS011;51514;52.206;5.114;2024-01-10T04:10:08;11.77;;;7.68;;
64885;SDS011;51514;52.206;5.114;2024-01-10T04:12:35;11.27;;;7.55;;
64885;SDS011;51514;52.206;5.114;2024-01-10T04:15:04;10.45;;;7.28;;
64885;SDS011;51514;52.206;5.114;2024-01-10T04:17:30;8.55;;;6.47;;
64885;SDS011;51514;52.206;5.114;2024-01-10T04:19:55;11.70;;;7.03;;
64885;SDS011;51514;52.206;5.114;2024-01-10T04:22:21;10.93;;;7.50;;
64885;SDS011;51514;52.206;5.114;2024-01-10T04:24:46;10.38;;;7.60;;
64885;SDS011;51514;52.206;5.114;2024-01-10T04:27:11;11.43;;;7.70;;
64885;SDS011;51514;52.206;5.114;2024-01-10T04:29:37;10.93;;;7.32;;
64885;SDS011;51514;52.206;5.114;2024-01-10T04:32:02;10.98;;;7.68;;
64885;SDS011;51514;52.206;5.114;2024-01-10T04:34:28;13.27;;;8.48;;
64885;SDS011;51514;52.206;5.114;2024-01-10T04:36:54;10.23;;;7.25;;
64885;SDS011;51514;52.206;5.114;2024-01-10T04:39:19;11.55;;;8.55;;
64885;SDS011;51514;52.206;5.114;2024-01-10T04:41:44;15.18;;;9.25;;
64885;SDS011;51514;52.206;5.114;2024-01-10T04:44:10;12.63;;;8.95;;
64885;SDS011;51514;52.206;5.114;2024-01-10T04:46:35;11.80;;;8.07;;
64885;SDS011;51514;52.206;5.114;2024-01-10T04:49:00;11.77;;;8.80;;
64885;SDS011;51514;52.206;5.114;2024-01-10T04:51:26;14.82;;;9.35;;
64885;SDS011;51514;52.206;5.114;2024-01-10T04:53:51;12.38;;;8.45;;
64885;SDS011;51514;52.206;5.114;2024-01-10T04:56:17;15.98;;;9.07;;
64885;SDS011;51514;52.206;5.114;2024-01-10T04:58:42;15.95;;;9.15;;
64885;SDS011;51514;52.206;5.114;2024-01-10T05:01:08;12.20;;;8.52;;
64885;SDS011;51514;52.206;5.114;2024-01-10T05:03:33;13.02;;;8.10;;
64885;SDS011;51514;52.206;5.114;2024-01-10T05:05:58;15.40;;;8.18;;
64885;SDS011;51514;52.206;5.114;2024-01-10T05:08:24;11.15;;;9.00;;
64885;SDS011;51514;52.206;5.114;2024-01-10T05:10:49;12.10;;;8.60;;
64885;SDS011;51514;52.206;5.114;2024-01-10T05:13:15;10.52;;;7.85;;
64885;SDS011;51514;52.206;5.114;2024-01-10T05:15:40;13.25;;;8.73;;
64885;SDS011;51514;52.206;5.114;2024-01-10T05:18:06;15.68;;;9.77;;
64885;SDS011;51514;52.206;5.114;2024-01-10T05:20:31;15.30;;;9.30;;
64885;SDS011;51514;52.206;5.114;2024-01-10T05:22:57;12.70;;;8.25;;
64885;SDS011;51514;52.206;5.114;2024-01-10T05:25:23;13.30;;;8.90;;
64885;SDS011;51514;52.206;5.114;2024-01-10T05:27:49;13.18;;;8.75;;
64885;SDS011;51514;52.206;5.114;2024-01-10T05:30:15;13.00;;;8.60;;
64885;SDS011;51514;52.206;5.114;2024-01-10T05:32:40;15.57;;;8.68;;
64885;SDS011;51514;52.206;5.114;2024-01-10T05:35:06;11.82;;;8.25;;
64885;SDS011;51514;52.206;5.114;2024-01-10T05:37:32;15.00;;;8.57;;
64885;SDS011;51514;52.206;5.114;2024-01-10T05:39:58;12.60;;;8.80;;
64885;SDS011;51514;52.206;5.114;2024-01-10T05:42:23;10.65;;;8.23;;
64885;SDS011;51514;52.206;5.114;2024-01-10T05:44:49;12.82;;;8.77;;
64885;SDS011;51514;52.206;5.114;2024-01-10T05:47:15;12.85;;;8.15;;
64885;SDS011;51514;52.206;5.114;2024-01-10T05:49:40;13.23;;;8.68;;
64885;SDS011;51514;52.206;5.114;2024-01-10T05:52:07;12.43;;;8.63;;
64885;SDS011;51514;52.206;5.114;2024-01-10T05:54:32;11.93;;;8.00;;
64885;SDS011;51514;52.206;5.114;2024-01-10T05:56:58;12.30;;;8.90;;
64885;SDS011;51514;52.206;5.114;2024-01-10T05:59:25;13.77;;;7.63;;
64885;SDS011;51514;52.206;5.114;2024-01-10T06:01:50;14.45;;;8.45;;
64885;SDS011;51514;52.206;5.114;2024-01-10T06:04:15;9.82;;;7.75;;
64885;SDS011;51514;52.206;5.114;2024-01-10T06:06:42;12.20;;;8.50;;
64885;SDS011;51514;52.206;5.114;2024-01-10T06:09:07;13.00;;;8.68;;
64885;SDS011;51514;52.206;5.114;2024-01-10T06:11:40;10.48;;;7.72;;
64885;SDS011;51514;52.206;5.114;2024-01-10T06:14:05;13.48;;;8.40;;
64885;SDS011;51514;52.206;5.114;2024-01-10T06:16:31;11.18;;;8.88;;
64885;SDS011;51514;52.206;5.114;2024-01-10T06:18:56;14.07;;;8.40;;
64885;SDS011;51514;52.206;5.114;2024-01-10T06:21:21;12.25;;;7.18;;
64885;SDS011;51514;52.206;5.114;2024-01-10T06:23:47;13.80;;;8.35;;
64885;SDS011;51514;52.206;5.114;2024-01-10T06:26:12;10.65;;;8.27;;
64885;SDS011;51514;52.206;5.114;2024-01-10T06:28:37;12.77;;;9.02;;
64885;SDS011;51514;52.206;5.114;2024-01-10T06:31:04;13.70;;;7.88;;
64885;SDS011;51514;52.206;5.114;2024-01-10T06:33:29;10.48;;;8.20;;
64885;SDS011;51514;52.206;5.114;2024-01-10T06:35:54;11.55;;;8.35;;
64885;SDS011;51514;52.206;5.114;2024-01-10T06:38:20;11.93;;;8.15;;
64885;SDS011;51514;52.206;5.114;2024-01-10T06:40:47;11.68;;;8.27;;
64885;SDS011;51514;52.206;5.114;2024-01-10T06:43:13;13.07;;;8.48;;
64885;SDS011;51514;52.206;5.114;2024-01-10T06:45:39;26.17;;;15.45;;
64885;SDS011;51514;52.206;5.114;2024-01-10T06:48:05;13.77;;;9.30;;
64885;SDS011;51514;52.206;5.114;2024-01-10T06:50:31;15.18;;;9.63;;
64885;SDS011;51514;52.206;5.114;2024-01-10T06:52:57;13.10;;;8.63;;
64885;SDS011;51514;52.206;5.114;2024-01-10T06:55:22;13.13;;;8.60;;
64885;SDS011;51514;52.206;5.114;2024-01-10T06:57:49;14.40;;;8.65;;
64885;SDS011;51514;52.206;5.114;2024-01-10T07:00:16;13.02;;;8.68;;
64885;SDS011;51514;52.206;5.114;2024-01-10T07:02:42;13.65;;;8.50;;
64885;SDS011;51514;52.206;5.114;2024-01-10T07:05:08;12.48;;;8.27;;
64885;SDS011;51514;52.206;5.114;2024-01-10T07:07:34;12.48;;;8.02;;
64885;SDS011;51514;52.206;5.114;2024-01-10T07:10:00;15.68;;;10.65;;
64885;SDS011;51514;52.206;5.114;2024-01-10T07:12:29;12.43;;;8.27;;
64885;SDS011;51514;52.206;5.114;2024-01-10T07:14:55;13.27;;;8.02;;
64885;SDS011;51514;52.206;5.114;2024-01-10T07:17:21;12.73;;;7.80;;
64885;SDS011;51514;52.206;5.114;2024-01-10T07:19:47;11.32;;;7.72;;
64885;SDS011;51514;52.206;5.114;2024-01-10T07:22:13;11.15;;;7.55;;
64885;SDS011;51514;52.206;5.114;2024-01-10T07:24:38;13.43;;;8.13;;
64885;SDS011;51514;52.206;5.114;2024-01-10T07:27:04;11.88;;;7.45;;
64885;SDS011;51514;52.206;5.114;2024-01-10T07:29:30;10.18;;;7.28;;
64885;SDS011;51514;52.206;5.114;2024-01-10T07:31:56;11.68;;;7.63;;
64885;SDS011;51514;52.206;5.114;2024-01-10T07:34:21;12.10;;;7.40;;
64885;SDS011;51514;52.206;5.114;2024-01-10T07:36:47;10.48;;;7.20;;
64885;SDS011;51514;52.206;5.114;2024-01-10T07:39:12;14.40;;;6.85;;
64885;SDS011;51514;52.206;5.114;2024-01-10T07:41:43;10.25;;;6.88;;
64885;SDS011;51514;52.206;5.114;2024-01-10T07:44:09;10.38;;;6.72;;
64885;SDS011;51514;52.206;5.114;2024-01-10T07:46:34;9.10;;;6.85;;
64885;SDS011;51514;52.206;5.114;2024-01-10T07:49:02;11.25;;;6.95;;
64885;SDS011;51514;52.206;5.114;2024-01-10T07:51:28;12.20;;;7.63;;
64885;SDS011;51514;52.206;5.114;2024-01-10T07:53:54;11.88;;;7.47;;
64885;SDS011;51514;52.206;5.114;2024-01-10T07:56:19;10.27;;;6.25;;
64885;SDS011;51514;52.206;5.114;2024-01-10T07:58:45;10.82;;;6.97;;
64885;SDS011;51514;52.206;5.114;2024-01-10T08:01:10;12.70;;;7.38;;
64885;SDS011;51514;52.206;5.114;2024-01-10T08:03:36;11.68;;;6.95;;
64885;SDS011;51514;52.206;5.114;2024-01-10T08:06:01;10.10;;;6.57;;
64885;SDS011;51514;52.206;5.114;2024-01-10T08:08:27;12.35;;;8.20;;
64885;SDS011;51514;52.206;5.114;2024-01-10T08:10:53;10.25;;;7.30;;
64885;SDS011;51514;52.206;5.114;2024-01-10T08:13:18;9.95;;;7.03;;
64885;SDS011;51514;52.206;5.114;2024-01-10T08:15:44;9.38;;;6.95;;
64885;SDS011;51514;52.206;5.114;2024-01-10T08:18:09;12.45;;;7.22;;
64885;SDS011;51514;52.206;5.114;2024-01-10T08:20:35;12.43;;;7.95;;
64885;SDS011;51514;52.206;5.114;2024-01-10T08:23:00;11.43;;;7.38;;
64885;SDS011;51514;52.206;5.114;2024-01-10T08:25:25;12.57;;;8.02;;
64885;SDS011;51514;52.206;5.114;2024-01-10T08:27:51;12.68;;;7.68;;
64885;SDS011;51514;52.206;5.114;2024-01-10T08:30:18;10.00;;;6.78;;
64885;SDS011;51514;52.206;5.114;2024-01-10T08:32:44;11.00;;;6.70;;
64885;SDS011;51514;52.206;5.114;2024-01-10T08:35:09;10.63;;;7.05;;
64885;SDS011;51514;52.206;5.114;2024-01-10T08:37:34;9.48;;;7.22;;
64885;SDS011;51514;52.206;5.114;2024-01-10T08:40:00;11.73;;;7.85;;
64885;SDS011;51514;52.206;5.114;2024-01-10T08:42:31;10.38;;;6.40;;
64885;SDS011;51514;52.206;5.114;2024-01-10T08:44:56;11.35;;;7.05;;
64885;SDS011;51514;52.206;5.114;2024-01-10T08:47:22;11.57;;;6.40;;
64885;SDS011;51514;52.206;5.114;2024-01-10T08:49:47;11.20;;;6.75;;
64885;SDS011;51514;52.206;5.114;2024-01-10T08:52:13;16.10;;;7.00;;
64885;SDS011;51514;52.206;5.114;2024-01-10T08:54:38;11.23;;;6.90;;
64885;SDS011;51514;52.206;5.114;2024-01-10T08:57:03;11.60;;;7.07;;
64885;SDS011;51514;52.206;5.114;2024-01-10T08:59:29;10.70;;;6.45;;
64885;SDS011;51514;52.206;5.114;2024-01-10T09:01:54;12.52;;;6.13;;
64885;SDS011;51514;52.206;5.114;2024-01-10T09:04:20;9.10;;;6.53;;
64885;SDS011;51514;52.206;5.114;2024-01-10T09:06:45;11.50;;;7.10;;
64885;SDS011;51514;52.206;5.114;2024-01-10T09:09:11;10.23;;;6.40;;
64885;SDS011;51514;52.206;5.114;2024-01-10T09:11:38;11.90;;;7.32;;
64885;SDS011;51514;52.206;5.114;2024-01-10T09:14:03;9.48;;;6.70;;
64885;SDS011;51514;52.206;5.114;2024-01-10T09:16:29;8.80;;;6.32;;
64885;SDS011;51514;52.206;5.114;2024-01-10T09:18:54;8.55;;;5.75;;
64885;SDS011;51514;52.206;5.114;2024-01-10T09:21:22;10.82;;;6.07;;
64885;SDS011;51514;52.206;5.114;2024-01-10T09:23:47;10.68;;;7.00;;
64885;SDS011;51514;52.206;5.114;2024-01-10T09:26:16;9.43;;;6.35;;
64885;SDS011;51514;52.206;5.114;2024-01-10T09:28:42;9.43;;;6.65;;
64885;SDS011;51514;52.206;5.114;2024-01-10T09:31:07;10.65;;;6.85;;
64885;SDS011;51514;52.206;5.114;2024-01-10T09:33:32;14.60;;;7.60;;
64885;SDS011;51514;52.206;5.114;2024-01-10T09:35:59;11.77;;;6.80;;
64885;SDS011;51514;52.206;5.114;2024-01-10T09:38:24;9.23;;;6.32;;
64885;SDS011;51514;52.206;5.114;2024-01-10T09:40:49;10.35;;;7.20;;
64885;SDS011;51514;52.206;5.114;2024-01-10T09:43:16;10.35;;;6.75;;
64885;SDS011;51514;52.206;5.114;2024-01-10T09:45:43;11.18;;;6.95;;
64885;SDS011;51514;52.206;5.114;2024-01-10T09:48:11;11.30;;;7.15;;
64885;SDS011;51514;52.206;5.114;2024-01-10T09:50:38;10.73;;;6.88;;
64885;SDS011;51514;52.206;5.114;2024-01-10T09:53:07;12.27;;;9.23;;
64885;SDS011;51514;52.206;5.114;2024-01-10T09:55:39;11.48;;;6.65;;
64885;SDS011;51514;52.206;5.114;2024-01-10T09:58:04;11.25;;;6.70;;
64885;SDS011;51514;52.206;5.114;2024-01-10T10:00:31;11.60;;;6.68;;
64885;SDS011;51514;52.206;5.114;2024-01-10T10:02:58;10.18;;;6.50;;
64885;SDS011;51514;52.206;5.114;2024-01-10T10:05:25;11.43;;;7.53;;
64885;SDS011;51514;52.206;5.114;2024-01-10T10:07:52;12.20;;;6.90;;
64885;SDS011;51514;52.206;5.114;2024-01-10T10:10:20;11.55;;;6.03;;
64885;SDS011;51514;52.206;5.114;2024-01-10T10:12:46;11.18;;;7.05;;
64885;SDS011;51514;52.206;5.114;2024-01-10T10:17:40;11.20;;;7.35;;
64885;SDS011;51514;52.206;5.114;2024-01-10T10:20:12;11.05;;;7.07;;
64885;SDS011;51514;52.206;5.114;2024-01-10T10:22:57;11.07;;;7.00;;
64885;SDS011;51514;52.206;5.114;2024-01-10T10:25:30;12.70;;;7.45;;
64885;SDS011;51514;52.206;5.114;2024-01-10T10:28:00;13.35;;;7.68;;
64885;SDS011;51514;52.206;5.114;2024-01-10T10:30:27;13.60;;;7.82;;
64885;SDS011;51514;52.206;5.114;2024-01-10T10:32:56;14.73;;;8.13;;
64885;SDS011;51514;52.206;5.114;2024-01-10T10:35:21;11.65;;;6.88;;
64885;SDS011;51514;52.206;5.114;2024-01-10T10:37:51;14.90;;;8.02;;
64885;SDS011;51514;52.206;5.114;2024-01-10T10:40:18;11.38;;;7.38;;
64885;SDS011;51514;52.206;5.114;2024-01-10T10:42:45;11.25;;;6.38;;
64885;SDS011;51514;52.206;5.114;2024-01-10T10:45:15;23.52;;;10.85;;
64885;SDS011;51514;52.206;5.114;2024-01-10T10:47:47;11.50;;;6.82;;
64885;SDS011;51514;52.206;5.114;2024-01-10T10:50:22;11.35;;;6.60;;
64885;SDS011;51514;52.206;5.114;2024-01-10T10:52:48;12.10;;;7.88;;
64885;SDS011;51514;52.206;5.114;2024-01-10T10:55:15;9.93;;;6.72;;
64885;SDS011;51514;52.206;5.114;2024-01-10T10:57:45;10.23;;;7.35;;
64885;SDS011;51514;52.206;5.114;2024-01-10T11:00:15;11.13;;;8.27;;
64885;SDS011;51514;52.206;5.114;2024-01-10T11:02:43;12.32;;;7.20;;
64885;SDS011;51514;52.206;5.114;2024-01-10T11:05:10;12.48;;;7.30;;
64885;SDS011;51514;52.206;5.114;2024-01-10T11:07:38;12.40;;;8.20;;
64885;SDS011;51514;52.206;5.114;2024-01-10T11:10:11;12.90;;;7.38;;
64885;SDS011;51514;52.206;5.114;2024-01-10T11:12:50;11.65;;;7.93;;
64885;SDS011;51514;52.206;5.114;2024-01-10T11:26:19;11.70;;;7.70;;
64885;SDS011;51514;52.206;5.114;2024-01-10T11:28:45;11.35;;;7.40;;
64885;SDS011;51514;52.206;5.114;2024-01-10T11:31:12;11.48;;;6.90;;
64885;SDS011;51514;52.206;5.114;2024-01-10T11:33:41;11.70;;;7.70;;
64885;SDS011;51514;52.206;5.114;2024-01-10T11:36:13;13.00;;;8.23;;
64885;SDS011;51514;52.206;5.114;2024-01-10T11:41:32;13.07;;;7.43;;
64885;SDS011;51514;52.206;5.114;2024-01-10T11:46:33;11.70;;;7.60;;
64885;SDS011;51514;52.206;5.114;2024-01-10T11:48:59;10.43;;;7.55;;
64885;SDS011;51514;52.206;5.114;2024-01-10T11:51:25;11.57;;;7.57;;
64885;SDS011;51514;52.206;5.114;2024-01-10T11:53:50;11.45;;;7.78;;
64885;SDS011;51514;52.206;5.114;2024-01-10T11:56:17;11.60;;;6.97;;
64885;SDS011;51514;52.206;5.114;2024-01-10T12:01:18;12.23;;;7.68;;
64885;SDS011;51514;52.206;5.114;2024-01-10T12:03:45;13.07;;;8.13;;
64885;SDS011;51514;52.206;5.114;2024-01-10T12:06:12;12.95;;;7.68;;
64885;SDS011;51514;52.206;5.114;2024-01-10T12:08:39;13.68;;;7.95;;
64885;SDS011;51514;52.206;5.114;2024-01-10T12:11:05;10.02;;;6.68;;
64885;SDS011;51514;52.206;5.114;2024-01-10T12:13:30;10.77;;;7.63;;
64885;SDS011;51514;52.206;5.114;2024-01-10T12:15:57;10.65;;;7.68;;
64885;SDS011;51514;52.206;5.114;2024-01-10T12:18:22;11.65;;;8.02;;
64885;SDS011;51514;52.206;5.114;2024-01-10T12:20:48;11.07;;;7.57;;
64885;SDS011;51514;52.206;5.114;2024-01-10T12:23:13;14.25;;;8.52;;
64885;SDS011;51514;52.206;5.114;2024-01-10T12:25:39;11.75;;;7.53;;
64885;SDS011;51514;52.206;5.114;2024-01-10T12:28:04;11.82;;;8.30;;
64885;SDS011;51514;52.206;5.114;2024-01-10T12:30:30;13.23;;;8.57;;
64885;SDS011;51514;52.206;5.114;2024-01-10T12:32:55;12.95;;;7.60;;
64885;SDS011;51514;52.206;5.114;2024-01-10T12:35:24;12.00;;;7.33;;
64885;SDS011;51514;52.206;5.114;2024-01-10T12:37:54;12.95;;;7.28;;
64885;SDS011;51514;52.206;5.114;2024-01-10T12:40:20;11.10;;;7.30;;
64885;SDS011;51514;52.206;5.114;2024-01-10T12:42:46;13.35;;;8.82;;
64885;SDS011;51514;52.206;5.114;2024-01-10T12:45:23;12.73;;;8.13;;
64885;SDS011;51514;52.206;5.114;2024-01-10T12:47:49;12.02;;;7.10;;
64885;SDS011;51514;52.206;5.114;2024-01-10T12:50:14;13.18;;;7.72;;
64885;SDS011;51514;52.206;5.114;2024-01-10T12:52:40;11.18;;;7.38;;
64885;SDS011;51514;52.206;5.114;2024-01-10T12:55:07;10.85;;;7.28;;
64885;SDS011;51514;52.206;5.114;2024-01-10T12:57:33;14.50;;;7.40;;
64885;SDS011;51514;52.206;5.114;2024-01-10T12:59:58;13.98;;;7.65;;
64885;SDS011;51514;52.206;5.114;2024-01-10T13:02:24;13.10;;;7.05;;
64885;SDS011;51514;52.206;5.114;2024-01-10T13:04:49;10.85;;;6.93;;
64885;SDS011;51514;52.206;5.114;2024-01-10T13:07:15;11.05;;;7.13;;
64885;SDS011;51514;52.206;5.114;2024-01-10T13:09:40;12.90;;;7.75;;
64885;SDS011;51514;52.206;5.114;2024-01-10T13:12:06;15.77;;;7.80;;
64885;SDS011;51514;52.206;5.114;2024-01-10T13:14:32;10.18;;;6.97;;
64885;SDS011;51514;52.206;5.114;2024-01-10T13:16:58;12.43;;;7.35;;
64885;SDS011;51514;52.206;5.114;2024-01-10T13:19:24;10.30;;;6.00;;
64885;SDS011;51514;52.206;5.114;2024-01-10T13:21:49;27.92;;;7.63;;
64885;SDS011;51514;52.206;5.114;2024-01-10T13:24:14;11.05;;;7.40;;
64885;SDS011;51514;52.206;5.114;2024-01-10T13:26:40;10.50;;;6.72;;
64885;SDS011;51514;52.206;5.114;2024-01-10T13:29:05;11.95;;;7.38;;
64885;SDS011;51514;52.206;5.114;2024-01-10T13:31:30;14.88;;;7.40;;
64885;SDS011;51514;52.206;5.114;2024-01-10T13:33:56;10.80;;;6.90;;
64885;SDS011;51514;52.206;5.114;2024-01-10T13:36:21;12.35;;;7.25;;
64885;SDS011;51514;52.206;5.114;2024-01-10T13:38:46;12.73;;;7.60;;
64885;SDS011;51514;52.206;5.114;2024-01-10T13:41:12;11.75;;;8.48;;
64885;SDS011;51514;52.206;5.114;2024-01-10T13:43:37;11.95;;;8.13;;
64885;SDS011;51514;52.206;5.114;2024-01-10T13:46:05;15.82;;;8.32;;
64885;SDS011;51514;52.206;5.114;2024-01-10T13:48:30;11.50;;;7.38;;
64885;SDS011;51514;52.206;5.114;2024-01-10T13:50:55;13.15;;;7.95;;
64885;SDS011;51514;52.206;5.114;2024-01-10T13:53:21;11.45;;;7.07;;
64885;SDS011;51514;52.206;5.114;2024-01-10T13:55:46;14.05;;;7.45;;
64885;SDS011;51514;52.206;5.114;2024-01-10T13:58:12;13.52;;;8.30;;
64885;SDS011;51514;52.206;5.114;2024-01-10T14:00:37;12.90;;;7.07;;
64885;SDS011;51514;52.206;5.114;2024-01-10T14:03:03;11.98;;;8.07;;
64885;SDS011;51514;52.206;5.114;2024-01-10T14:05:29;16.02;;;8.60;;
64885;SDS011;51514;52.206;5.114;2024-01-10T14:07:54;11.93;;;7.53;;
64885;SDS011;51514;52.206;5.114;2024-01-10T14:10:20;15.23;;;7.25;;
64885;SDS011;51514;52.206;5.114;2024-01-10T14:12:46;12.38;;;7.75;;
64885;SDS011;51514;52.206;5.114;2024-01-10T14:15:12;11.50;;;7.38;;
64885;SDS011;51514;52.206;5.114;2024-01-10T14:17:38;10.75;;;7.18;;
64885;SDS011;51514;52.206;5.114;2024-01-10T14:20:05;13.43;;;7.47;;
64885;SDS011;51514;52.206;5.114;2024-01-10T14:22:33;15.35;;;7.80;;
64885;SDS011;51514;52.206;5.114;2024-01-10T14:24:59;11.65;;;7.43;;
64885;SDS011;51514;52.206;5.114;2024-01-10T14:27:25;10.52;;;7.25;;
64885;SDS011;51514;52.206;5.114;2024-01-10T14:29:50;13.02;;;7.93;;
64885;SDS011;51514;52.206;5.114;2024-01-10T14:32:16;15.77;;;8.50;;
64885;SDS011;51514;52.206;5.114;2024-01-10T14:34:41;13.23;;;7.80;;
64885;SDS011;51514;52.206;5.114;2024-01-10T14:37:07;12.57;;;7.78;;
64885;SDS011;51514;52.206;5.114;2024-01-10T14:39:35;13.70;;;8.02;;
64885;SDS011;51514;52.206;5.114;2024-01-10T14:42:05;10.30;;;6.70;;
64885;SDS011;51514;52.206;5.114;2024-01-10T14:46:59;11.52;;;6.72;;
64885;SDS011;51514;52.206;5.114;2024-01-10T14:49:25;12.10;;;7.47;;
64885;SDS011;51514;52.206;5.114;2024-01-10T14:51:50;15.50;;;7.60;;
64885;SDS011;51514;52.206;5.114;2024-01-10T14:54:15;13.50;;;8.25;;